METAR Data
IDs: Format: Raw Decoded Include TAF

Data at: 1443 UTC 25 Jan 2020

METAR for:EKRN (Ronne/Bornholm Arpt, --, DN)
Text:EKRN 251420Z AUTO 28012KT 9999 // BKN004/// 06/06 Q1017
Temperature: 6.0°C ( 43°F)
Dewpoint: 6.0°C ( 43°F) [RH = 100%]
Pressure (altimeter):30.03 inches Hg (1017.0 mb)
Winds:from the W (280 degrees) at 14 MPH (12 knots; 6.2 m/s)
Visibility:6 or more sm (10+ km)
Ceiling:400 feet AGL
Clouds: broken clouds at 400 feet AGL
Text:EKRN 251350Z AUTO 27012KT 9999 // FEW006/// BKN013/// 06/06 Q1017
Temperature: 6.0°C ( 43°F)
Dewpoint: 6.0°C ( 43°F) [RH = 100%]
Pressure (altimeter):30.03 inches Hg (1017.0 mb)
Winds:from the W (270 degrees) at 14 MPH (12 knots; 6.2 m/s)
Visibility:6 or more sm (10+ km)
Ceiling:1300 feet AGL
Clouds: few clouds at 600 feet AGL, broken clouds at 1300 feet AGL
Text:EKRN 251320Z AUTO 28012KT 9999 // BKN005/// 06/06 Q1017
Temperature: 6.0°C ( 43°F)
Dewpoint: 6.0°C ( 43°F) [RH = 100%]
Pressure (altimeter):30.03 inches Hg (1017.0 mb)
Winds:from the W (280 degrees) at 14 MPH (12 knots; 6.2 m/s)
Visibility:6 or more sm (10+ km)
Ceiling:500 feet AGL
Clouds: broken clouds at 500 feet AGL
Text:EKRN 251250Z AUTO 27015KT 9999 // BKN005/// 06/06 Q1017
Temperature: 6.0°C ( 43°F)
Dewpoint: 6.0°C ( 43°F) [RH = 100%]
Pressure (altimeter):30.03 inches Hg (1017.0 mb)
Winds:from the W (270 degrees) at 17 MPH (15 knots; 7.7 m/s)
Visibility:6 or more sm (10+ km)
Ceiling:500 feet AGL
Clouds: broken clouds at 500 feet AGL
Text:EKRN 251220Z AUTO 28014KT 9999 // OVC004/// 06/06 Q1017
Temperature: 6.0°C ( 43°F)
Dewpoint: 6.0°C ( 43°F) [RH = 100%]
Pressure (altimeter):30.03 inches Hg (1017.0 mb)
Winds:from the W (280 degrees) at 16 MPH (14 knots; 7.2 m/s)
Visibility:6 or more sm (10+ km)
Ceiling:400 feet AGL
Clouds: overcast cloud deck at 400 feet AGL
Text:EKRN 251150Z AUTO 27014KT 9999 // OVC005/// 06/06 Q1017
Temperature: 6.0°C ( 43°F)
Dewpoint: 6.0°C ( 43°F) [RH = 100%]
Pressure (altimeter):30.03 inches Hg (1017.0 mb)
Winds:from the W (270 degrees) at 16 MPH (14 knots; 7.2 m/s)
Visibility:6 or more sm (10+ km)
Ceiling:500 feet AGL
Clouds: overcast cloud deck at 500 feet AGL
Text:EKRN 251120Z AUTO 27015KT 9999 // BKN005/// 06/06 Q1017
Temperature: 6.0°C ( 43°F)
Dewpoint: 6.0°C ( 43°F) [RH = 100%]
Pressure (altimeter):30.03 inches Hg (1017.0 mb)
Winds:from the W (270 degrees) at 17 MPH (15 knots; 7.7 m/s)
Visibility:6 or more sm (10+ km)
Ceiling:500 feet AGL
Clouds: broken clouds at 500 feet AGL
Text:EKRN 251050Z AUTO 27016KT 9999 // BKN005/// 06/06 Q1017
Temperature: 6.0°C ( 43°F)
Dewpoint: 6.0°C ( 43°F) [RH = 100%]
Pressure (altimeter):30.03 inches Hg (1017.0 mb)
Winds:from the W (270 degrees) at 18 MPH (16 knots; 8.2 m/s)
Visibility:6 or more sm (10+ km)
Ceiling:500 feet AGL
Clouds: broken clouds at 500 feet AGL
Text:EKRN 251020Z AUTO 27017KT 9999 // OVC004/// 06/06 Q1017
Temperature: 6.0°C ( 43°F)
Dewpoint: 6.0°C ( 43°F) [RH = 100%]
Pressure (altimeter):30.03 inches Hg (1017.0 mb)
Winds:from the W (270 degrees) at 20 MPH (17 knots; 8.7 m/s)
Visibility:6 or more sm (10+ km)
Ceiling:400 feet AGL
Clouds: overcast cloud deck at 400 feet AGL
Text:EKRN 250950Z AUTO 27015KT 9000 // OVC003/// 06/06 Q1017
Temperature: 6.0°C ( 43°F)
Dewpoint: 6.0°C ( 43°F) [RH = 100%]
Pressure (altimeter):30.03 inches Hg (1017.0 mb)
Winds:from the W (270 degrees) at 17 MPH (15 knots; 7.7 m/s)
Visibility: 6 sm ( 9 km)
Ceiling:300 feet AGL
Clouds: overcast cloud deck at 300 feet AGL
Text:EKRN 250920Z AUTO 27013KT 9000 // OVC004/// 06/06 Q1017
Temperature: 6.0°C ( 43°F)
Dewpoint: 6.0°C ( 43°F) [RH = 100%]
Pressure (altimeter):30.03 inches Hg (1017.0 mb)
Winds:from the W (270 degrees) at 15 MPH (13 knots; 6.7 m/s)
Visibility: 6 sm ( 9 km)
Ceiling:400 feet AGL
Clouds: overcast cloud deck at 400 feet AGL
Text:EKRN 250850Z AUTO 27015KT 8000 // OVC002/// 05/05 Q1016
Temperature: 5.0°C ( 41°F)
Dewpoint: 5.0°C ( 41°F) [RH = 100%]
Pressure (altimeter):30.00 inches Hg (1016.0 mb)
Winds:from the W (270 degrees) at 17 MPH (15 knots; 7.7 m/s)
Visibility: 5 sm ( 8 km)
Ceiling:200 feet AGL
Clouds: overcast cloud deck at 200 feet AGL
Text:EKRN 250820Z AUTO 27016KT 8000 // BKN004/// 05/05 Q1016
Temperature: 5.0°C ( 41°F)
Dewpoint: 5.0°C ( 41°F) [RH = 100%]
Pressure (altimeter):30.00 inches Hg (1016.0 mb)
Winds:from the W (270 degrees) at 18 MPH (16 knots; 8.2 m/s)
Visibility: 5 sm ( 8 km)
Ceiling:400 feet AGL
Clouds: broken clouds at 400 feet AGL
Text:EKRN 250750Z AUTO 26016KT 7000 // BKN003/// BKN170/// 05/05 Q1016
Temperature: 5.0°C ( 41°F)
Dewpoint: 5.0°C ( 41°F) [RH = 100%]
Pressure (altimeter):30.00 inches Hg (1016.0 mb)
Winds:from the W (260 degrees) at 18 MPH (16 knots; 8.2 m/s)
Visibility: 4 sm ( 7 km)
Ceiling:300 feet AGL
Clouds: broken clouds at 300 feet AGL, broken clouds at 17000 feet AGL
Text:EKRN 250720Z AUTO 27016KT 9999 // BKN004/// 06/06 Q1016
Temperature: 6.0°C ( 43°F)
Dewpoint: 6.0°C ( 43°F) [RH = 100%]
Pressure (altimeter):30.00 inches Hg (1016.0 mb)
Winds:from the W (270 degrees) at 18 MPH (16 knots; 8.2 m/s)
Visibility:6 or more sm (10+ km)
Ceiling:400 feet AGL
Clouds: broken clouds at 400 feet AGL
Text:EKRN 250650Z AUTO 27015KT 9999 // BKN004/// 05/05 Q1015
Temperature: 5.0°C ( 41°F)
Dewpoint: 5.0°C ( 41°F) [RH = 100%]
Pressure (altimeter):29.97 inches Hg (1015.0 mb)
Winds:from the W (270 degrees) at 17 MPH (15 knots; 7.7 m/s)
Visibility:6 or more sm (10+ km)
Ceiling:400 feet AGL
Clouds: broken clouds at 400 feet AGL
Text:EKRN 250620Z AUTO 27014KT 9999 // BKN004/// 05/05 Q1015
Temperature: 5.0°C ( 41°F)
Dewpoint: 5.0°C ( 41°F) [RH = 100%]
Pressure (altimeter):29.97 inches Hg (1015.0 mb)
Winds:from the W (270 degrees) at 16 MPH (14 knots; 7.2 m/s)
Visibility:6 or more sm (10+ km)
Ceiling:400 feet AGL
Clouds: broken clouds at 400 feet AGL
Text:EKRN 250550Z AUTO 28013KT 9999 // BKN006/// 05/05 Q1015
Temperature: 5.0°C ( 41°F)
Dewpoint: 5.0°C ( 41°F) [RH = 100%]
Pressure (altimeter):29.97 inches Hg (1015.0 mb)
Winds:from the W (280 degrees) at 15 MPH (13 knots; 6.7 m/s)
Visibility:6 or more sm (10+ km)
Ceiling:600 feet AGL
Clouds: broken clouds at 600 feet AGL
Text:EKRN 250520Z AUTO 27012KT 9999 // BKN005/// 05/05 Q1015
Temperature: 5.0°C ( 41°F)
Dewpoint: 5.0°C ( 41°F) [RH = 100%]
Pressure (altimeter):29.97 inches Hg (1015.0 mb)
Winds:from the W (270 degrees) at 14 MPH (12 knots; 6.2 m/s)
Visibility:6 or more sm (10+ km)
Ceiling:500 feet AGL
Clouds: broken clouds at 500 feet AGL
Text:EKRN 250450Z AUTO 28012KT 9999 // BKN003/// 05/05 Q1015
Temperature: 5.0°C ( 41°F)
Dewpoint: 5.0°C ( 41°F) [RH = 100%]
Pressure (altimeter):29.97 inches Hg (1015.0 mb)
Winds:from the W (280 degrees) at 14 MPH (12 knots; 6.2 m/s)
Visibility:6 or more sm (10+ km)
Ceiling:300 feet AGL
Clouds: broken clouds at 300 feet AGL
Text:EKRN 250420Z AUTO 27013KT 6000 // OVC003/// 06/06 Q1015
Temperature: 6.0°C ( 43°F)
Dewpoint: 6.0°C ( 43°F) [RH = 100%]
Pressure (altimeter):29.97 inches Hg (1015.0 mb)
Winds:from the W (270 degrees) at 15 MPH (13 knots; 6.7 m/s)
Visibility: 4 sm ( 6 km)
Ceiling:300 feet AGL
Clouds: overcast cloud deck at 300 feet AGL
Text:EKRN 250350Z AUTO 27014KT 8000 // BKN004/// OVC029/// 06/06 Q1015
Temperature: 6.0°C ( 43°F)
Dewpoint: 6.0°C ( 43°F) [RH = 100%]
Pressure (altimeter):29.97 inches Hg (1015.0 mb)
Winds:from the W (270 degrees) at 16 MPH (14 knots; 7.2 m/s)
Visibility: 5 sm ( 8 km)
Ceiling:400 feet AGL
Clouds: broken clouds at 400 feet AGL, overcast cloud deck at 2900 feet AGL
Text:EKRN 250320Z AUTO 27014KT 8000 // BKN004/// BKN023/// OVC035/// 06/06 Q1015
Temperature: 6.0°C ( 43°F)
Dewpoint: 6.0°C ( 43°F) [RH = 100%]
Pressure (altimeter):29.97 inches Hg (1015.0 mb)
Winds:from the W (270 degrees) at 16 MPH (14 knots; 7.2 m/s)
Visibility: 5 sm ( 8 km)
Ceiling:400 feet AGL
Clouds: broken clouds at 400 feet AGL, broken clouds at 2300 feet AGL, overcast cloud deck at 3500 feet AGL
Text:EKRN 250250Z AUTO 28014KT 6000 // BKN004/// OVC025/// 06/06 Q1015
Temperature: 6.0°C ( 43°F)
Dewpoint: 6.0°C ( 43°F) [RH = 100%]
Pressure (altimeter):29.97 inches Hg (1015.0 mb)
Winds:from the W (280 degrees) at 16 MPH (14 knots; 7.2 m/s)
Visibility: 4 sm ( 6 km)
Ceiling:400 feet AGL
Clouds: broken clouds at 400 feet AGL, overcast cloud deck at 2500 feet AGL
Text:EKRN 250220Z AUTO 28015KT 4300 // BKN004/// OVC013/// 06/06 Q1015
Temperature: 6.0°C ( 43°F)
Dewpoint: 6.0°C ( 43°F) [RH = 100%]
Pressure (altimeter):29.97 inches Hg (1015.0 mb)
Winds:from the W (280 degrees) at 17 MPH (15 knots; 7.7 m/s)
Visibility: 2.67 sm ( 4.30 km)
Ceiling:400 feet AGL
Clouds: broken clouds at 400 feet AGL, overcast cloud deck at 1300 feet AGL
Text:EKRN 250150Z AUTO 27016KT 6000 // OVC004/// 06/06 Q1015
Temperature: 6.0°C ( 43°F)
Dewpoint: 6.0°C ( 43°F) [RH = 100%]
Pressure (altimeter):29.97 inches Hg (1015.0 mb)
Winds:from the W (270 degrees) at 18 MPH (16 knots; 8.2 m/s)
Visibility: 4 sm ( 6 km)
Ceiling:400 feet AGL
Clouds: overcast cloud deck at 400 feet AGL
Text:EKRN 250120Z AUTO 27017KT 4400 // OVC004/// 06/06 Q1015
Temperature: 6.0°C ( 43°F)
Dewpoint: 6.0°C ( 43°F) [RH = 100%]
Pressure (altimeter):29.97 inches Hg (1015.0 mb)
Winds:from the W (270 degrees) at 20 MPH (17 knots; 8.7 m/s)
Visibility: 2.73 sm ( 4.39 km)
Ceiling:400 feet AGL
Clouds: overcast cloud deck at 400 feet AGL
Text:EKRN 250050Z AUTO 27018KT 4600 // OVC004/// 06/06 Q1015
Temperature: 6.0°C ( 43°F)
Dewpoint: 6.0°C ( 43°F) [RH = 100%]
Pressure (altimeter):29.97 inches Hg (1015.0 mb)
Winds:from the W (270 degrees) at 21 MPH (18 knots; 9.3 m/s)
Visibility: 2.86 sm ( 4.60 km)
Ceiling:400 feet AGL
Clouds: overcast cloud deck at 400 feet AGL
Text:EKRN 250020Z AUTO 27017KT 5000 // OVC004/// 06/06 Q1015
Temperature: 6.0°C ( 43°F)
Dewpoint: 6.0°C ( 43°F) [RH = 100%]
Pressure (altimeter):29.97 inches Hg (1015.0 mb)
Winds:from the W (270 degrees) at 20 MPH (17 knots; 8.7 m/s)
Visibility: 3 sm ( 5 km)
Ceiling:400 feet AGL
Clouds: overcast cloud deck at 400 feet AGL
Text:EKRN 242350Z AUTO 27016KT 5000 // OVC004/// 06/06 Q1015
Temperature: 6.0°C ( 43°F)
Dewpoint: 6.0°C ( 43°F) [RH = 100%]
Pressure (altimeter):29.97 inches Hg (1015.0 mb)
Winds:from the W (270 degrees) at 18 MPH (16 knots; 8.2 m/s)
Visibility: 3 sm ( 5 km)
Ceiling:400 feet AGL
Clouds: overcast cloud deck at 400 feet AGL
Text:EKRN 242320Z AUTO 27020KT 3100 // OVC003/// 05/05 Q1015
Temperature: 5.0°C ( 41°F)
Dewpoint: 5.0°C ( 41°F) [RH = 100%]
Pressure (altimeter):29.97 inches Hg (1015.0 mb)
Winds:from the W (270 degrees) at 23 MPH (20 knots; 10.3 m/s)
Visibility: 1.93 sm ( 3.11 km)
Ceiling:300 feet AGL
Clouds: overcast cloud deck at 300 feet AGL
Text:EKRN 242250Z AUTO 26018KT 3300 // OVC003/// 05/05 Q1015
Temperature: 5.0°C ( 41°F)
Dewpoint: 5.0°C ( 41°F) [RH = 100%]
Pressure (altimeter):29.97 inches Hg (1015.0 mb)
Winds:from the W (260 degrees) at 21 MPH (18 knots; 9.3 m/s)
Visibility: 2.05 sm ( 3.30 km)
Ceiling:300 feet AGL
Clouds: overcast cloud deck at 300 feet AGL
Text:EKRN 242220Z AUTO 26019KT 2400 // OVC003/// 05/05 Q1015
Temperature: 5.0°C ( 41°F)
Dewpoint: 5.0°C ( 41°F) [RH = 100%]
Pressure (altimeter):29.97 inches Hg (1015.0 mb)
Winds:from the W (260 degrees) at 22 MPH (19 knots; 9.8 m/s)
Visibility: 1.49 sm ( 2.40 km)
Ceiling:300 feet AGL
Clouds: overcast cloud deck at 300 feet AGL
Text:EKRN 242150Z AUTO 26019KT 2300 // OVC003/// 05/05 Q1015
Temperature: 5.0°C ( 41°F)
Dewpoint: 5.0°C ( 41°F) [RH = 100%]
Pressure (altimeter):29.97 inches Hg (1015.0 mb)
Winds:from the W (260 degrees) at 22 MPH (19 knots; 9.8 m/s)
Visibility: 1.43 sm ( 2.30 km)
Ceiling:300 feet AGL
Clouds: overcast cloud deck at 300 feet AGL
Text:EKRN 242120Z AUTO 26018KT 2300 // OVC003/// 05/05 Q1015
Temperature: 5.0°C ( 41°F)
Dewpoint: 5.0°C ( 41°F) [RH = 100%]
Pressure (altimeter):29.97 inches Hg (1015.0 mb)
Winds:from the W (260 degrees) at 21 MPH (18 knots; 9.3 m/s)
Visibility: 1.43 sm ( 2.30 km)
Ceiling:300 feet AGL
Clouds: overcast cloud deck at 300 feet AGL
Text:EKRN 242050Z AUTO 26020KT 2800 // OVC003/// 05/05 Q1015
Temperature: 5.0°C ( 41°F)
Dewpoint: 5.0°C ( 41°F) [RH = 100%]
Pressure (altimeter):29.97 inches Hg (1015.0 mb)
Winds:from the W (260 degrees) at 23 MPH (20 knots; 10.3 m/s)
Visibility: 1.74 sm ( 2.80 km)
Ceiling:300 feet AGL
Clouds: overcast cloud deck at 300 feet AGL
Text:EKRN 242020Z AUTO 26019KT 2400 // OVC002/// 05/05 Q1015
Temperature: 5.0°C ( 41°F)
Dewpoint: 5.0°C ( 41°F) [RH = 100%]
Pressure (altimeter):29.97 inches Hg (1015.0 mb)
Winds:from the W (260 degrees) at 22 MPH (19 knots; 9.8 m/s)
Visibility: 1.49 sm ( 2.40 km)
Ceiling:200 feet AGL
Clouds: overcast cloud deck at 200 feet AGL
Text:EKRN 241950Z AUTO 26018KT 2200 // OVC003/// 05/05 Q1015
Temperature: 5.0°C ( 41°F)
Dewpoint: 5.0°C ( 41°F) [RH = 100%]
Pressure (altimeter):29.97 inches Hg (1015.0 mb)
Winds:from the W (260 degrees) at 21 MPH (18 knots; 9.3 m/s)
Visibility: 1.37 sm ( 2.20 km)
Ceiling:300 feet AGL
Clouds: overcast cloud deck at 300 feet AGL
Text:EKRN 241920Z AUTO 26019KT 4100 // OVC004/// 06/06 Q1015
Temperature: 6.0°C ( 43°F)
Dewpoint: 6.0°C ( 43°F) [RH = 100%]
Pressure (altimeter):29.97 inches Hg (1015.0 mb)
Winds:from the W (260 degrees) at 22 MPH (19 knots; 9.8 m/s)
Visibility: 2.55 sm ( 4.10 km)
Ceiling:400 feet AGL
Clouds: overcast cloud deck at 400 feet AGL
Text:EKRN 241850Z AUTO 26018KT 4200 // OVC004/// 05/05 Q1015
Temperature: 5.0°C ( 41°F)
Dewpoint: 5.0°C ( 41°F) [RH = 100%]
Pressure (altimeter):29.97 inches Hg (1015.0 mb)
Winds:from the W (260 degrees) at 21 MPH (18 knots; 9.3 m/s)
Visibility: 2.61 sm ( 4.20 km)
Ceiling:400 feet AGL
Clouds: overcast cloud deck at 400 feet AGL
Text:EKRN 241820Z AUTO 26018KT 4600 // OVC004/// 05/05 Q1015
Temperature: 5.0°C ( 41°F)
Dewpoint: 5.0°C ( 41°F) [RH = 100%]
Pressure (altimeter):29.97 inches Hg (1015.0 mb)
Winds:from the W (260 degrees) at 21 MPH (18 knots; 9.3 m/s)
Visibility: 2.86 sm ( 4.60 km)
Ceiling:400 feet AGL
Clouds: overcast cloud deck at 400 feet AGL
Text:EKRN 241750Z AUTO 26017KT 5000 // OVC003/// 05/05 Q1015
Temperature: 5.0°C ( 41°F)
Dewpoint: 5.0°C ( 41°F) [RH = 100%]
Pressure (altimeter):29.97 inches Hg (1015.0 mb)
Winds:from the W (260 degrees) at 20 MPH (17 knots; 8.7 m/s)
Visibility: 3 sm ( 5 km)
Ceiling:300 feet AGL
Clouds: overcast cloud deck at 300 feet AGL
Text:EKRN 241720Z AUTO 26017KT 4800 // OVC003/// 05/05 Q1015
Temperature: 5.0°C ( 41°F)
Dewpoint: 5.0°C ( 41°F) [RH = 100%]
Pressure (altimeter):29.97 inches Hg (1015.0 mb)
Winds:from the W (260 degrees) at 20 MPH (17 knots; 8.7 m/s)
Visibility: 2.98 sm ( 4.80 km)
Ceiling:300 feet AGL
Clouds: overcast cloud deck at 300 feet AGL
Text:EKRN 241650Z AUTO 26017KT 5000 // OVC004/// 05/05 Q1015
Temperature: 5.0°C ( 41°F)
Dewpoint: 5.0°C ( 41°F) [RH = 100%]
Pressure (altimeter):29.97 inches Hg (1015.0 mb)
Winds:from the W (260 degrees) at 20 MPH (17 knots; 8.7 m/s)
Visibility: 3 sm ( 5 km)
Ceiling:400 feet AGL
Clouds: overcast cloud deck at 400 feet AGL
Text:EKRN 241620Z AUTO 25017KT 7000 // OVC004/// 05/05 Q1015
Temperature: 5.0°C ( 41°F)
Dewpoint: 5.0°C ( 41°F) [RH = 100%]
Pressure (altimeter):29.97 inches Hg (1015.0 mb)
Winds:from the WSW (250 degrees) at 20 MPH (17 knots; 8.7 m/s)
Visibility: 4 sm ( 7 km)
Ceiling:400 feet AGL
Clouds: overcast cloud deck at 400 feet AGL
Text:EKRN 241550Z AUTO 26018KT 9000 // OVC004/// 05/05 Q1015
Temperature: 5.0°C ( 41°F)
Dewpoint: 5.0°C ( 41°F) [RH = 100%]
Pressure (altimeter):29.97 inches Hg (1015.0 mb)
Winds:from the W (260 degrees) at 21 MPH (18 knots; 9.3 m/s)
Visibility: 6 sm ( 9 km)
Ceiling:400 feet AGL
Clouds: overcast cloud deck at 400 feet AGL
Text:EKRN 241520Z AUTO 26016KT 7000 // OVC005/// 05/05 Q1015
Temperature: 5.0°C ( 41°F)
Dewpoint: 5.0°C ( 41°F) [RH = 100%]
Pressure (altimeter):29.97 inches Hg (1015.0 mb)
Winds:from the W (260 degrees) at 18 MPH (16 knots; 8.2 m/s)
Visibility: 4 sm ( 7 km)
Ceiling:500 feet AGL
Clouds: overcast cloud deck at 500 feet AGL
Text:EKRN 241450Z AUTO 26017KT 9000 // OVC005/// 05/05 Q1015
Temperature: 5.0°C ( 41°F)
Dewpoint: 5.0°C ( 41°F) [RH = 100%]
Pressure (altimeter):29.97 inches Hg (1015.0 mb)
Winds:from the W (260 degrees) at 20 MPH (17 knots; 8.7 m/s)
Visibility: 6 sm ( 9 km)
Ceiling:500 feet AGL
Clouds: overcast cloud deck at 500 feet AGL
Text:EKRN 241420Z AUTO 26016KT 9999 // OVC005/// 05/05 Q1016
Temperature: 5.0°C ( 41°F)
Dewpoint: 5.0°C ( 41°F) [RH = 100%]
Pressure (altimeter):30.00 inches Hg (1016.0 mb)
Winds:from the W (260 degrees) at 18 MPH (16 knots; 8.2 m/s)
Visibility:6 or more sm (10+ km)
Ceiling:500 feet AGL
Clouds: overcast cloud deck at 500 feet AGL
Text:EKRN 241350Z AUTO 26015KT 9999 // OVC005/// 05/05 Q1016
Temperature: 5.0°C ( 41°F)
Dewpoint: 5.0°C ( 41°F) [RH = 100%]
Pressure (altimeter):30.00 inches Hg (1016.0 mb)
Winds:from the W (260 degrees) at 17 MPH (15 knots; 7.7 m/s)
Visibility:6 or more sm (10+ km)
Ceiling:500 feet AGL
Clouds: overcast cloud deck at 500 feet AGL
Text:EKRN 241320Z AUTO 26017KT 8000 // OVC004/// 05/05 Q1016
Temperature: 5.0°C ( 41°F)
Dewpoint: 5.0°C ( 41°F) [RH = 100%]
Pressure (altimeter):30.00 inches Hg (1016.0 mb)
Winds:from the W (260 degrees) at 20 MPH (17 knots; 8.7 m/s)
Visibility: 5 sm ( 8 km)
Ceiling:400 feet AGL
Clouds: overcast cloud deck at 400 feet AGL
Text:EKRN 241250Z AUTO 26018KT 8000 // OVC005/// 05/05 Q1016
Temperature: 5.0°C ( 41°F)
Dewpoint: 5.0°C ( 41°F) [RH = 100%]
Pressure (altimeter):30.00 inches Hg (1016.0 mb)
Winds:from the W (260 degrees) at 21 MPH (18 knots; 9.3 m/s)
Visibility: 5 sm ( 8 km)
Ceiling:500 feet AGL
Clouds: overcast cloud deck at 500 feet AGL
Text:EKRN 241220Z AUTO 26020KT 6000 // OVC004/// 05/05 Q1016
Temperature: 5.0°C ( 41°F)
Dewpoint: 5.0°C ( 41°F) [RH = 100%]
Pressure (altimeter):30.00 inches Hg (1016.0 mb)
Winds:from the W (260 degrees) at 23 MPH (20 knots; 10.3 m/s)
Visibility: 4 sm ( 6 km)
Ceiling:400 feet AGL
Clouds: overcast cloud deck at 400 feet AGL
Text:EKRN 241150Z AUTO 26017KT 5000 // OVC005/// 05/05 Q1016
Temperature: 5.0°C ( 41°F)
Dewpoint: 5.0°C ( 41°F) [RH = 100%]
Pressure (altimeter):30.00 inches Hg (1016.0 mb)
Winds:from the W (260 degrees) at 20 MPH (17 knots; 8.7 m/s)
Visibility: 3 sm ( 5 km)
Ceiling:500 feet AGL
Clouds: overcast cloud deck at 500 feet AGL
Text:EKRN 241120Z AUTO 26019KT 7000 // OVC005/// 05/05 Q1017
Temperature: 5.0°C ( 41°F)
Dewpoint: 5.0°C ( 41°F) [RH = 100%]
Pressure (altimeter):30.03 inches Hg (1017.0 mb)
Winds:from the W (260 degrees) at 22 MPH (19 knots; 9.8 m/s)
Visibility: 4 sm ( 7 km)
Ceiling:500 feet AGL
Clouds: overcast cloud deck at 500 feet AGL
Text:EKRN 241050Z AUTO 26019KT 8000 // OVC005/// 05/05 Q1017
Temperature: 5.0°C ( 41°F)
Dewpoint: 5.0°C ( 41°F) [RH = 100%]
Pressure (altimeter):30.03 inches Hg (1017.0 mb)
Winds:from the W (260 degrees) at 22 MPH (19 knots; 9.8 m/s)
Visibility: 5 sm ( 8 km)
Ceiling:500 feet AGL
Clouds: overcast cloud deck at 500 feet AGL
Text:EKRN 241020Z AUTO 26021KT 5000 // OVC004/// 05/05 Q1017
Temperature: 5.0°C ( 41°F)
Dewpoint: 5.0°C ( 41°F) [RH = 100%]
Pressure (altimeter):30.03 inches Hg (1017.0 mb)
Winds:from the W (260 degrees) at 24 MPH (21 knots; 10.8 m/s)
Visibility: 3 sm ( 5 km)
Ceiling:400 feet AGL
Clouds: overcast cloud deck at 400 feet AGL
Text:EKRN 240950Z AUTO 25019KT 4600 // OVC003/// 05/05 Q1017
Temperature: 5.0°C ( 41°F)
Dewpoint: 5.0°C ( 41°F) [RH = 100%]
Pressure (altimeter):30.03 inches Hg (1017.0 mb)
Winds:from the WSW (250 degrees) at 22 MPH (19 knots; 9.8 m/s)
Visibility: 2.86 sm ( 4.60 km)
Ceiling:300 feet AGL
Clouds: overcast cloud deck at 300 feet AGL
Text:EKRN 240920Z AUTO 25020KT 3700 // OVC004/// 05/05 Q1018
Temperature: 5.0°C ( 41°F)
Dewpoint: 5.0°C ( 41°F) [RH = 100%]
Pressure (altimeter):30.06 inches Hg (1018.0 mb)
Winds:from the WSW (250 degrees) at 23 MPH (20 knots; 10.3 m/s)
Visibility: 2.30 sm ( 3.70 km)
Ceiling:400 feet AGL
Clouds: overcast cloud deck at 400 feet AGL
Text:EKRN 240850Z AUTO 25020KT 3500 // OVC003/// 05/05 Q1018
Temperature: 5.0°C ( 41°F)
Dewpoint: 5.0°C ( 41°F) [RH = 100%]
Pressure (altimeter):30.06 inches Hg (1018.0 mb)
Winds:from the WSW (250 degrees) at 23 MPH (20 knots; 10.3 m/s)
Visibility: 2.17 sm ( 3.49 km)
Ceiling:300 feet AGL
Clouds: overcast cloud deck at 300 feet AGL
Text:EKRN 240820Z AUTO 25021KT 5000 // OVC003/// 05/05 Q1018
Temperature: 5.0°C ( 41°F)
Dewpoint: 5.0°C ( 41°F) [RH = 100%]
Pressure (altimeter):30.06 inches Hg (1018.0 mb)
Winds:from the WSW (250 degrees) at 24 MPH (21 knots; 10.8 m/s)
Visibility: 3 sm ( 5 km)
Ceiling:300 feet AGL
Clouds: overcast cloud deck at 300 feet AGL
Text:EKRN 240750Z AUTO 26021KT 6000 // OVC003/// 05/05 Q1018
Temperature: 5.0°C ( 41°F)
Dewpoint: 5.0°C ( 41°F) [RH = 100%]
Pressure (altimeter):30.06 inches Hg (1018.0 mb)
Winds:from the W (260 degrees) at 24 MPH (21 knots; 10.8 m/s)
Visibility: 4 sm ( 6 km)
Ceiling:300 feet AGL
Clouds: overcast cloud deck at 300 feet AGL
Text:EKRN 240720Z AUTO 26020KT 3700 // OVC003/// 05/05 Q1018
Temperature: 5.0°C ( 41°F)
Dewpoint: 5.0°C ( 41°F) [RH = 100%]
Pressure (altimeter):30.06 inches Hg (1018.0 mb)
Winds:from the W (260 degrees) at 23 MPH (20 knots; 10.3 m/s)
Visibility: 2.30 sm ( 3.70 km)
Ceiling:300 feet AGL
Clouds: overcast cloud deck at 300 feet AGL
Text:EKRN 240650Z AUTO 26021KT 2600 // OVC002/// 05/05 Q1018
Temperature: 5.0°C ( 41°F)
Dewpoint: 5.0°C ( 41°F) [RH = 100%]
Pressure (altimeter):30.06 inches Hg (1018.0 mb)
Winds:from the W (260 degrees) at 24 MPH (21 knots; 10.8 m/s)
Visibility: 1.62 sm ( 2.61 km)
Ceiling:200 feet AGL
Clouds: overcast cloud deck at 200 feet AGL
Text:EKRN 240620Z AUTO 26022KT 4000 // OVC003/// 05/05 Q1018
Temperature: 5.0°C ( 41°F)
Dewpoint: 5.0°C ( 41°F) [RH = 100%]
Pressure (altimeter):30.06 inches Hg (1018.0 mb)
Winds:from the W (260 degrees) at 25 MPH (22 knots; 11.3 m/s)
Visibility: 2.49 sm ( 4.01 km)
Ceiling:300 feet AGL
Clouds: overcast cloud deck at 300 feet AGL
Text:EKRN 240550Z AUTO 25022KT 6000 // OVC003/// 05/05 Q1018
Temperature: 5.0°C ( 41°F)
Dewpoint: 5.0°C ( 41°F) [RH = 100%]
Pressure (altimeter):30.06 inches Hg (1018.0 mb)
Winds:from the WSW (250 degrees) at 25 MPH (22 knots; 11.3 m/s)
Visibility: 4 sm ( 6 km)
Ceiling:300 feet AGL
Clouds: overcast cloud deck at 300 feet AGL
Text:EKRN 240520Z AUTO 25022KT 3100 // OVC003/// 05/05 Q1018
Temperature: 5.0°C ( 41°F)
Dewpoint: 5.0°C ( 41°F) [RH = 100%]
Pressure (altimeter):30.06 inches Hg (1018.0 mb)
Winds:from the WSW (250 degrees) at 25 MPH (22 knots; 11.3 m/s)
Visibility: 1.93 sm ( 3.11 km)
Ceiling:300 feet AGL
Clouds: overcast cloud deck at 300 feet AGL
Text:EKRN 240450Z AUTO 25021KT 3800 // OVC003/// 05/05 Q1018
Temperature: 5.0°C ( 41°F)
Dewpoint: 5.0°C ( 41°F) [RH = 100%]
Pressure (altimeter):30.06 inches Hg (1018.0 mb)
Winds:from the WSW (250 degrees) at 24 MPH (21 knots; 10.8 m/s)
Visibility: 2.36 sm ( 3.80 km)
Ceiling:300 feet AGL
Clouds: overcast cloud deck at 300 feet AGL
Text:EKRN 240420Z AUTO 26021KT 4900 // OVC004/// 05/05 Q1018
Temperature: 5.0°C ( 41°F)
Dewpoint: 5.0°C ( 41°F) [RH = 100%]
Pressure (altimeter):30.06 inches Hg (1018.0 mb)
Winds:from the W (260 degrees) at 24 MPH (21 knots; 10.8 m/s)
Visibility: 3 sm ( 5 km)
Ceiling:400 feet AGL
Clouds: overcast cloud deck at 400 feet AGL
Text:EKRN 240350Z AUTO 26020KT 5000 // OVC004/// 05/05 Q1018
Temperature: 5.0°C ( 41°F)
Dewpoint: 5.0°C ( 41°F) [RH = 100%]
Pressure (altimeter):30.06 inches Hg (1018.0 mb)
Winds:from the W (260 degrees) at 23 MPH (20 knots; 10.3 m/s)
Visibility: 3 sm ( 5 km)
Ceiling:400 feet AGL
Clouds: overcast cloud deck at 400 feet AGL
Text:EKRN 240320Z AUTO 25021KT 5000 // OVC004/// 05/05 Q1018
Temperature: 5.0°C ( 41°F)
Dewpoint: 5.0°C ( 41°F) [RH = 100%]
Pressure (altimeter):30.06 inches Hg (1018.0 mb)
Winds:from the WSW (250 degrees) at 24 MPH (21 knots; 10.8 m/s)
Visibility: 3 sm ( 5 km)
Ceiling:400 feet AGL
Clouds: overcast cloud deck at 400 feet AGL
Text:EKRN 240250Z AUTO 26022KT 4800 // OVC003/// 05/05 Q1019
Temperature: 5.0°C ( 41°F)
Dewpoint: 5.0°C ( 41°F) [RH = 100%]
Pressure (altimeter):30.09 inches Hg (1019.0 mb)
Winds:from the W (260 degrees) at 25 MPH (22 knots; 11.3 m/s)
Visibility: 2.98 sm ( 4.80 km)
Ceiling:300 feet AGL
Clouds: overcast cloud deck at 300 feet AGL

TAF for:EKRN (Ronne/Bornholm Arpt, --, DN) issued at 1422 UTC 25 Jan 2020
Text:TAF EKRN 251422Z 2515/2521 26013KT 8000 BKN003
Forecast period:1500 to 2100 UTC 25 January 2020
Forecast type:FROM: standard forecast or significant change
Winds:from the W (260 degrees) at 15 MPH (13 knots; 6.7 m/s)
Visibility: 5 sm ( 8 km)
Ceiling:300 feet AGL
Clouds: broken clouds at 300 feet AGL
Text:TEMPO 2515/2517 2500 -DZRA BKN015
Forecast period:1500 to 1700 UTC 25 January 2020
Forecast type:TEMPORARY: The following changes expected for less than half the time period
Visibility: 1.55 sm ( 2.49 km)
Ceiling:1500 feet AGL
Clouds: broken clouds at 1500 feet AGL
Weather:-DZ -RA (light drizzle, light rain)
Text:TEMPO 2517/2521 2500 -DZRA BR BKN005
Forecast period:1700 to 2100 UTC 25 January 2020
Forecast type:TEMPORARY: The following changes expected for less than half the time period
Visibility: 1.55 sm ( 2.49 km)
Ceiling:500 feet AGL
Clouds: broken clouds at 500 feet AGL
Weather:-DZ -RA BR (light drizzle, light rain, mist)